sensor_id;sensor_type;location;lat;lon;timestamp;pressure;altitude;pressure_sealevel;temperature;humidity
43681;BME280;29281;50.356;30.894;2023-05-13T00:00:42;100954.92;;;13.93;51.93
43681;BME280;29281;50.356;30.894;2023-05-13T00:01:46;100955.03;;;13.91;52.23
43681;BME280;29281;50.356;30.894;2023-05-13T00:02:51;100956.13;;;13.89;52.65
43681;BME280;29281;50.356;30.894;2023-05-13T00:03:56;100956.13;;;13.89;52.40
43681;BME280;29281;50.356;30.894;2023-05-13T00:04:59;100960.61;;;13.88;52.39
43681;BME280;29281;50.356;30.894;2023-05-13T00:06:03;100955.47;;;13.85;52.63
43681;BME280;29281;50.356;30.894;2023-05-13T00:07:06;100962.84;;;13.82;52.74
43681;BME280;29281;50.356;30.894;2023-05-13T00:08:10;100960.27;;;13.80;52.79
43681;BME280;29281;50.356;30.894;2023-05-13T00:09:13;100958.89;;;13.75;52.80
43681;BME280;29281;50.356;30.894;2023-05-13T00:10:16;100959.95;;;13.72;52.64
43681;BME280;29281;50.356;30.894;2023-05-13T00:11:23;100958.05;;;13.74;52.77
43681;BME280;29281;50.356;30.894;2023-05-13T00:12:28;100960.16;;;13.69;52.75
43681;BME280;29281;50.356;30.894;2023-05-13T00:13:32;100961.33;;;13.65;52.61
43681;BME280;29281;50.356;30.894;2023-05-13T00:14:37;100963.79;;;13.68;52.88
43681;BME280;29281;50.356;30.894;2023-05-13T00:15:40;100953.11;;;13.68;53.49
43681;BME280;29281;50.356;30.894;2023-05-13T00:16:44;100954.92;;;13.67;53.86
43681;BME280;29281;50.356;30.894;2023-05-13T00:17:47;100957.59;;;13.67;54.13
43681;BME280;29281;50.356;30.894;2023-05-13T00:18:51;100954.27;;;13.64;54.46
43681;BME280;29281;50.356;30.894;2023-05-13T00:19:59;100956.09;;;13.63;54.36
43681;BME280;29281;50.356;30.894;2023-05-13T00:21:00;100957.28;;;13.59;54.22
43681;BME280;29281;50.356;30.894;2023-05-13T00:22:03;100957.79;;;13.52;54.55
43681;BME280;29281;50.356;30.894;2023-05-13T00:23:07;100952.45;;;13.52;54.47
43681;BME280;29281;50.356;30.894;2023-05-13T00:24:11;100953.31;;;13.52;54.46
43681;BME280;29281;50.356;30.894;2023-05-13T00:25:15;100952.66;;;13.49;54.75
43681;BME280;29281;50.356;30.894;2023-05-13T00:26:18;100953.61;;;13.48;54.88
43681;BME280;29281;50.356;30.894;2023-05-13T00:27:22;100946.66;;;13.45;55.05
43681;BME280;29281;50.356;30.894;2023-05-13T00:28:27;100955.86;;;13.41;55.23
43681;BME280;29281;50.356;30.894;2023-05-13T00:29:31;100948.91;;;13.38;55.44
43681;BME280;29281;50.356;30.894;2023-05-13T00:30:34;100950.92;;;13.35;55.48
43681;BME280;29281;50.356;30.894;2023-05-13T00:31:39;100959.02;;;13.33;55.64
43681;BME280;29281;50.356;30.894;2023-05-13T00:32:43;100956.56;;;13.30;55.61
43681;BME280;29281;50.356;30.894;2023-05-13T00:33:48;100957.95;;;13.23;55.21
43681;BME280;29281;50.356;30.894;2023-05-13T00:34:52;100952.91;;;13.19;55.47
43681;BME280;29281;50.356;30.894;2023-05-13T00:35:58;100961.01;;;13.17;55.14
43681;BME280;29281;50.356;30.894;2023-05-13T00:37:01;100959.39;;;13.15;55.02
43681;BME280;29281;50.356;30.894;2023-05-13T00:38:05;100957.59;;;13.15;54.97
43681;BME280;29281;50.356;30.894;2023-05-13T00:39:08;100957.29;;;13.20;55.53
43681;BME280;29281;50.356;30.894;2023-05-13T00:40:24;100956.63;;;13.16;55.27
43681;BME280;29281;50.356;30.894;2023-05-13T00:41:21;100956.23;;;13.22;55.31
43681;BME280;29281;50.356;30.894;2023-05-13T00:42:26;100963.19;;;13.25;56.27
43681;BME280;29281;50.356;30.894;2023-05-13T00:43:30;100962.98;;;13.28;55.26
43681;BME280;29281;50.356;30.894;2023-05-13T00:44:33;100962.23;;;13.26;55.82
43681;BME280;29281;50.356;30.894;2023-05-13T00:45:37;100956.13;;;13.24;56.14
43681;BME280;29281;50.356;30.894;2023-05-13T00:46:41;100961.86;;;13.18;55.70
43681;BME280;29281;50.356;30.894;2023-05-13T00:47:44;100957.48;;;13.17;55.44
43681;BME280;29281;50.356;30.894;2023-05-13T00:48:49;100967.00;;;13.21;56.43
43681;BME280;29281;50.356;30.894;2023-05-13T00:49:53;100959.75;;;13.23;55.67
43681;BME280;29281;50.356;30.894;2023-05-13T00:50:56;100968.81;;;13.20;55.19
43681;BME280;29281;50.356;30.894;2023-05-13T00:52:00;100962.42;;;13.23;55.40
43681;BME280;29281;50.356;30.894;2023-05-13T00:53:04;100962.23;;;13.26;55.25
43681;BME280;29281;50.356;30.894;2023-05-13T00:54:07;100959.95;;;13.20;55.39
43681;BME280;29281;50.356;30.894;2023-05-13T00:55:11;100965.39;;;13.18;55.51
43681;BME280;29281;50.356;30.894;2023-05-13T00:56:16;100967.39;;;13.15;55.63
43681;BME280;29281;50.356;30.894;2023-05-13T00:57:18;100967.79;;;13.09;55.83
43681;BME280;29281;50.356;30.894;2023-05-13T00:58:21;100969.80;;;13.05;55.99
43681;BME280;29281;50.356;30.894;2023-05-13T00:59:25;100961.23;;;13.00;56.30
43681;BME280;29281;50.356;30.894;2023-05-13T01:00:32;100963.80;;;13.01;56.18
43681;BME280;29281;50.356;30.894;2023-05-13T01:07:52;100962.26;;;13.12;57.24
43681;BME280;29281;50.356;30.894;2023-05-13T01:09:55;100954.61;;;12.93;56.97
43681;BME280;29281;50.356;30.894;2023-05-13T01:11:00;100957.47;;;12.90;57.64
43681;BME280;29281;50.356;30.894;2023-05-13T01:12:07;100964.61;;;12.89;58.45
43681;BME280;29281;50.356;30.894;2023-05-13T01:13:13;100964.71;;;12.88;58.26
43681;BME280;29281;50.356;30.894;2023-05-13T01:14:22;100965.66;;;12.87;58.29
43681;BME280;29281;50.356;30.894;2023-05-13T01:15:27;100964.17;;;12.83;58.09
43681;BME280;29281;50.356;30.894;2023-05-13T01:16:33;100964.38;;;12.80;58.09
43681;BME280;29281;50.356;30.894;2023-05-13T01:17:43;100967.84;;;12.67;58.16
43681;BME280;29281;50.356;30.894;2023-05-13T01:18:51;100961.84;;;12.64;58.91
43681;BME280;29281;50.356;30.894;2023-05-13T01:19:54;100965.93;;;12.55;60.13
43681;BME280;29281;50.356;30.894;2023-05-13T01:21:00;100966.02;;;12.54;58.84
43681;BME280;29281;50.356;30.894;2023-05-13T01:22:04;100966.02;;;12.54;59.00
43681;BME280;29281;50.356;30.894;2023-05-13T01:23:09;100962.63;;;12.52;59.96
43681;BME280;29281;50.356;30.894;2023-05-13T01:24:14;100961.97;;;12.48;59.43
43681;BME280;29281;50.356;30.894;2023-05-13T01:25:17;100962.73;;;12.50;59.56
43681;BME280;29281;50.356;30.894;2023-05-13T01:26:20;100960.25;;;12.47;60.54
43681;BME280;29281;50.356;30.894;2023-05-13T01:27:29;100962.73;;;12.50;59.39
43681;BME280;29281;50.356;30.894;2023-05-13T01:28:32;100960.92;;;12.51;59.49
43681;BME280;29281;50.356;30.894;2023-05-13T01:29:38;100959.84;;;12.53;59.31
43681;BME280;29281;50.356;30.894;2023-05-13T01:30:45;100961.88;;;12.50;59.40
43681;BME280;29281;50.356;30.894;2023-05-13T01:31:50;100963.01;;;12.46;59.21
43681;BME280;29281;50.356;30.894;2023-05-13T01:32:59;100964.15;;;12.42;60.00
43681;BME280;29281;50.356;30.894;2023-05-13T01:34:04;100966.05;;;12.40;59.47
43681;BME280;29281;50.356;30.894;2023-05-13T01:35:10;100963.48;;;12.38;59.43
43681;BME280;29281;50.356;30.894;2023-05-13T01:36:15;100957.20;;;12.39;60.26
43681;BME280;29281;50.356;30.894;2023-05-13T01:37:18;100953.99;;;12.34;60.59
43681;BME280;29281;50.356;30.894;2023-05-13T01:38:22;100955.80;;;12.33;60.59
43681;BME280;29281;50.356;30.894;2023-05-13T01:39:28;100958.56;;;12.32;60.70
43681;BME280;29281;50.356;30.894;2023-05-13T01:40:36;100952.66;;;12.27;60.06
43681;BME280;29281;50.356;30.894;2023-05-13T01:41:41;100958.57;;;12.18;60.51
43681;BME280;29281;50.356;30.894;2023-05-13T01:42:45;100950.58;;;12.18;60.55
43681;BME280;29281;50.356;30.894;2023-05-13T01:43:49;100952.67;;;12.13;60.60
43681;BME280;29281;50.356;30.894;2023-05-13T01:44:52;100961.14;;;12.05;60.95
43681;BME280;29281;50.356;30.894;2023-05-13T01:45:57;100951.54;;;12.03;61.04
43681;BME280;29281;50.356;30.894;2023-05-13T01:47:02;100953.34;;;12.02;61.11
43681;BME280;29281;50.356;30.894;2023-05-13T01:48:15;100953.53;;;11.99;61.10
43681;BME280;29281;50.356;30.894;2023-05-13T01:49:18;100950.50;;;11.91;61.53
43681;BME280;29281;50.356;30.894;2023-05-13T01:50:21;100948.97;;;12.01;61.22
43681;BME280;29281;50.356;30.894;2023-05-13T01:51:25;100952.00;;;11.95;61.56
43681;BME280;29281;50.356;30.894;2023-05-13T01:52:32;100947.44;;;11.97;62.57
43681;BME280;29281;50.356;30.894;2023-05-13T01:53:36;100952.77;;;11.97;62.01
43681;BME280;29281;50.356;30.894;2023-05-13T01:54:40;100961.33;;;12.02;61.90
43681;BME280;29281;50.356;30.894;2023-05-13T01:55:46;100956.19;;;11.99;62.60
43681;BME280;29281;50.356;30.894;2023-05-13T01:56:49;100955.15;;;12.02;62.97
43681;BME280;29281;50.356;30.894;2023-05-13T01:57:54;100953.25;;;12.04;63.01
43681;BME280;29281;50.356;30.894;2023-05-13T01:58:58;100960.30;;;12.05;62.95
43681;BME280;29281;50.356;30.894;2023-05-13T02:00:01;100955.15;;;12.02;62.10
43681;BME280;29281;50.356;30.894;2023-05-13T02:01:07;100957.05;;;12.00;62.01
43681;BME280;29281;50.356;30.894;2023-05-13T02:02:10;100956.95;;;12.01;62.66
43681;BME280;29281;50.356;30.894;2023-05-13T02:03:14;100952.77;;;11.97;62.67
43681;BME280;29281;50.356;30.894;2023-05-13T02:04:17;100949.33;;;11.95;62.61
43681;BME280;29281;50.356;30.894;2023-05-13T02:05:21;100955.52;;;11.95;62.53
43681;BME280;29281;50.356;30.894;2023-05-13T02:06:24;100957.50;;;11.92;62.71
43681;BME280;29281;50.356;30.894;2023-05-13T02:07:32;100968.05;;;11.93;62.48
43681;BME280;29281;50.356;30.894;2023-05-13T02:08:35;100955.64;;;11.64;63.13
43681;BME280;29281;50.356;30.894;2023-05-13T02:09:38;100957.06;;;11.55;63.67
43681;BME280;29281;50.356;30.894;2023-05-13T02:10:43;100955.99;;;11.44;64.17
43681;BME280;29281;50.356;30.894;2023-05-13T02:11:47;100958.50;;;11.31;65.03
43681;BME280;29281;50.356;30.894;2023-05-13T02:12:50;100952.70;;;11.24;65.65
43681;BME280;29281;50.356;30.894;2023-05-13T02:13:56;100947.20;;;11.27;65.33
43681;BME280;29281;50.356;30.894;2023-05-13T02:15:00;100953.17;;;11.31;65.11
43681;BME280;29281;50.356;30.894;2023-05-13T02:16:05;100957.55;;;11.32;65.12
43681;BME280;29281;50.356;30.894;2023-05-13T02:17:10;100950.52;;;11.31;65.29
43681;BME280;29281;50.356;30.894;2023-05-13T02:18:15;100954.16;;;11.30;65.34
43681;BME280;29281;50.356;30.894;2023-05-13T02:19:17;100954.72;;;11.35;65.29
43681;BME280;29281;50.356;30.894;2023-05-13T02:20:23;100951.88;;;11.38;65.28
43681;BME280;29281;50.356;30.894;2023-05-13T02:21:26;100947.59;;;11.36;65.41
43681;BME280;29281;50.356;30.894;2023-05-13T02:22:30;100949.73;;;11.45;64.96
43681;BME280;29281;50.356;30.894;2023-05-13T02:23:32;100952.18;;;11.48;65.09
43681;BME280;29281;50.356;30.894;2023-05-13T02:24:38;100958.56;;;11.45;65.05
43681;BME280;29281;50.356;30.894;2023-05-13T02:25:44;100959.63;;;11.57;64.74
43681;BME280;29281;50.356;30.894;2023-05-13T02:26:48;100952.51;;;11.57;64.51
43681;BME280;29281;50.356;30.894;2023-05-13T02:27:51;100957.44;;;11.63;64.30
43681;BME280;29281;50.356;30.894;2023-05-13T02:28:55;100953.47;;;11.71;64.04
43681;BME280;29281;50.356;30.894;2023-05-13T02:29:59;100961.28;;;11.74;63.90
43681;BME280;29281;50.356;30.894;2023-05-13T02:31:03;100957.76;;;11.73;63.96
43681;BME280;29281;50.356;30.894;2023-05-13T02:32:08;100961.95;;;11.77;64.34
43681;BME280;29281;50.356;30.894;2023-05-13T02:33:13;100964.08;;;11.86;64.26
43681;BME280;29281;50.356;30.894;2023-05-13T02:34:21;100959.13;;;11.94;64.12
43681;BME280;29281;50.356;30.894;2023-05-13T02:35:23;100964.27;;;11.97;64.01
43681;BME280;29281;50.356;30.894;2023-05-13T02:36:29;100967.60;;;12.01;64.59
43681;BME280;29281;50.356;30.894;2023-05-13T02:37:32;100969.50;;;11.99;64.35
43681;BME280;29281;50.356;30.894;2023-05-13T02:38:36;100969.31;;;12.02;63.75
43681;BME280;29281;50.356;30.894;2023-05-13T02:39:41;100968.55;;;12.00;63.92
43681;BME280;29281;50.356;30.894;2023-05-13T02:40:46;100977.03;;;12.07;63.89
43681;BME280;29281;50.356;30.894;2023-05-13T02:41:53;100977.39;;;12.15;63.80
43681;BME280;29281;50.356;30.894;2023-05-13T02:42:56;100974.81;;;12.27;63.56
43681;BME280;29281;50.356;30.894;2023-05-13T02:44:02;100974.13;;;12.38;62.90
43681;BME280;29281;50.356;30.894;2023-05-13T02:45:07;100976.34;;;12.31;63.37
43681;BME280;29281;50.356;30.894;2023-05-13T02:46:11;100976.92;;;12.37;62.56
43681;BME280;29281;50.356;30.894;2023-05-13T02:47:22;100974.88;;;12.54;62.24
43681;BME280;29281;50.356;30.894;2023-05-13T02:48:27;100983.25;;;12.62;61.33
43681;BME280;29281;50.356;30.894;2023-05-13T02:49:30;100984.48;;;12.57;61.54
43681;BME280;29281;50.356;30.894;2023-05-13T02:50:33;100987.05;;;12.58;61.32
43681;BME280;29281;50.356;30.894;2023-05-13T02:51:37;100986.87;;;12.61;60.93
43681;BME280;29281;50.356;30.894;2023-05-13T02:52:43;100991.37;;;12.88;60.11
43681;BME280;29281;50.356;30.894;2023-05-13T02:53:46;100982.51;;;13.28;58.79
43681;BME280;29281;50.356;30.894;2023-05-13T02:54:51;100981.42;;;13.31;58.17
43681;BME280;29281;50.356;30.894;2023-05-13T02:55:56;100984.72;;;13.22;58.59
43681;BME280;29281;50.356;30.894;2023-05-13T02:57:00;100988.83;;;13.13;59.32
43681;BME280;29281;50.356;30.894;2023-05-13T02:58:03;100990.37;;;13.03;59.05
43681;BME280;29281;50.356;30.894;2023-05-13T02:59:07;100986.63;;;13.20;58.82
43681;BME280;29281;50.356;30.894;2023-05-13T03:00:10;100993.58;;;13.22;58.34
43681;BME280;29281;50.356;30.894;2023-05-13T03:01:14;100986.95;;;13.01;58.81
43681;BME280;29281;50.356;30.894;2023-05-13T03:02:16;100984.84;;;13.06;58.92
43681;BME280;29281;50.356;30.894;2023-05-13T03:03:21;100986.09;;;13.00;59.15
43681;BME280;29281;50.356;30.894;2023-05-13T03:04:26;100986.16;;;13.13;59.00
43681;BME280;29281;50.356;30.894;2023-05-13T03:05:29;100991.00;;;13.21;58.63
43681;BME280;29281;50.356;30.894;2023-05-13T03:06:32;100991.14;;;13.32;58.30
43681;BME280;29281;50.356;30.894;2023-05-13T03:07:35;100993.37;;;13.25;58.33
43681;BME280;29281;50.356;30.894;2023-05-13T03:08:42;100989.59;;;13.42;57.99
43681;BME280;29281;50.356;30.894;2023-05-13T03:09:48;100986.20;;;13.65;57.21
43681;BME280;29281;50.356;30.894;2023-05-13T03:10:55;100994.02;;;13.94;56.21
43681;BME280;29281;50.356;30.894;2023-05-13T03:11:58;100996.81;;;14.18;55.53
43681;BME280;29281;50.356;30.894;2023-05-13T03:13:01;100989.22;;;14.12;55.49
43681;BME280;29281;50.356;30.894;2023-05-13T03:14:04;100997.13;;;13.88;56.23
43681;BME280;29281;50.356;30.894;2023-05-13T03:15:08;100992.19;;;13.69;56.63
43681;BME280;29281;50.356;30.894;2023-05-13T03:16:13;100999.33;;;13.56;57.17
43681;BME280;29281;50.356;30.894;2023-05-13T03:17:16;100999.73;;;13.50;57.39
43681;BME280;29281;50.356;30.894;2023-05-13T03:18:20;101007.08;;;13.46;57.66
43681;BME280;29281;50.356;30.894;2023-05-13T03:19:24;101004.66;;;13.56;57.30
43681;BME280;29281;50.356;30.894;2023-05-13T03:20:27;101004.80;;;13.80;56.73
43681;BME280;29281;50.356;30.894;2023-05-13T03:21:31;101001.80;;;13.59;57.02
43681;BME280;29281;50.356;30.894;2023-05-13T03:22:35;100999.17;;;13.45;57.75
43681;BME280;29281;50.356;30.894;2023-05-13T03:23:40;101007.08;;;13.46;57.96
43681;BME280;29281;50.356;30.894;2023-05-13T03:24:43;101001.52;;;13.36;58.04
43681;BME280;29281;50.356;30.894;2023-05-13T03:25:47;101002.67;;;13.32;58.33
43681;BME280;29281;50.356;30.894;2023-05-13T03:26:52;101005.44;;;13.31;58.51
43681;BME280;29281;50.356;30.894;2023-05-13T03:27:55;100999.23;;;13.30;58.42
43681;BME280;29281;50.356;30.894;2023-05-13T03:28:59;101003.72;;;13.30;58.61
43681;BME280;29281;50.356;30.894;2023-05-13T03:30:07;101001.05;;;13.30;58.61
43681;BME280;29281;50.356;30.894;2023-05-13T03:31:14;101000.95;;;13.31;58.64
43681;BME280;29281;50.356;30.894;2023-05-13T03:32:18;101001.71;;;13.33;58.71
43681;BME280;29281;50.356;30.894;2023-05-13T03:33:21;101002.07;;;13.42;58.56
43681;BME280;29281;50.356;30.894;2023-05-13T03:34:24;101008.46;;;13.39;58.57
43681;BME280;29281;50.356;30.894;2023-05-13T03:35:28;100998.77;;;13.51;58.31
43681;BME280;29281;50.356;30.894;2023-05-13T03:36:31;100997.91;;;13.50;58.36
43681;BME280;29281;50.356;30.894;2023-05-13T03:37:34;101004.97;;;13.51;58.47
43681;BME280;29281;50.356;30.894;2023-05-13T03:38:40;101011.18;;;13.64;58.26
43681;BME280;29281;50.356;30.894;2023-05-13T03:39:43;101004.58;;;13.70;57.78
43681;BME280;29281;50.356;30.894;2023-05-13T03:40:47;101006.50;;;13.68;57.68
43681;BME280;29281;50.356;30.894;2023-05-13T03:41:49;101002.56;;;13.73;57.73
43681;BME280;29281;50.356;30.894;2023-05-13T03:42:53;101005.95;;;13.76;57.39
43681;BME280;29281;50.356;30.894;2023-05-13T03:43:57;101001.47;;;13.76;57.58
43681;BME280;29281;50.356;30.894;2023-05-13T03:45:00;100999.77;;;13.75;57.76
43681;BME280;29281;50.356;30.894;2023-05-13T03:46:05;101007.71;;;13.89;57.43
43681;BME280;29281;50.356;30.894;2023-05-13T03:47:08;101011.65;;;13.96;56.84
43681;BME280;29281;50.356;30.894;2023-05-13T03:48:12;101005.25;;;13.99;56.79
43681;BME280;29281;50.356;30.894;2023-05-13T03:49:16;101005.80;;;14.04;56.42
43681;BME280;29281;50.356;30.894;2023-05-13T03:50:20;101006.00;;;14.14;56.46
43681;BME280;29281;50.356;30.894;2023-05-13T03:51:26;101008.25;;;14.20;56.29
43681;BME280;29281;50.356;30.894;2023-05-13T03:52:29;101004.18;;;14.14;56.26
43681;BME280;29281;50.356;30.894;2023-05-13T03:53:33;101006.95;;;14.25;56.04
43681;BME280;29281;50.356;30.894;2023-05-13T03:54:38;101015.29;;;14.33;56.07
43681;BME280;29281;50.356;30.894;2023-05-13T03:55:42;101023.64;;;14.41;55.62
43681;BME280;29281;50.356;30.894;2023-05-13T03:56:45;101014.55;;;14.44;55.59
43681;BME280;29281;50.356;30.894;2023-05-13T03:57:49;101020.00;;;14.42;55.55
43681;BME280;29281;50.356;30.894;2023-05-13T03:58:54;101015.30;;;14.46;55.74
43681;BME280;29281;50.356;30.894;2023-05-13T03:59:56;101020.52;;;14.60;55.37
43681;BME280;29281;50.356;30.894;2023-05-13T04:00:59;101027.75;;;14.71;55.33
43681;BME280;29281;50.356;30.894;2023-05-13T04:02:03;101025.40;;;14.79;55.07
43681;BME280;29281;50.356;30.894;2023-05-13T04:03:07;101027.61;;;14.85;54.53
43681;BME280;29281;50.356;30.894;2023-05-13T04:04:11;101029.11;;;14.89;54.64
43681;BME280;29281;50.356;30.894;2023-05-13T04:05:15;101028.56;;;14.97;54.86
43681;BME280;29281;50.356;30.894;2023-05-13T04:06:20;101026.44;;;14.89;55.00
43681;BME280;29281;50.356;30.894;2023-05-13T04:07:24;101022.42;;;15.07;54.86
43681;BME280;29281;50.356;30.894;2023-05-13T04:08:27;101023.89;;;15.35;54.47
43681;BME280;29281;50.356;30.894;2023-05-13T04:09:31;101022.58;;;16.22;51.99
43681;BME280;29281;50.356;30.894;2023-05-13T04:10:37;101023.71;;;17.30;49.78
43681;BME280;29281;50.356;30.894;2023-05-13T04:11:42;101021.56;;;17.55;47.74
43681;BME280;29281;50.356;30.894;2023-05-13T04:12:46;101027.18;;;17.52;47.61
43681;BME280;29281;50.356;30.894;2023-05-13T04:13:50;101028.91;;;17.42;47.32
43681;BME280;29281;50.356;30.894;2023-05-13T04:14:55;101039.65;;;17.42;47.23
43681;BME280;29281;50.356;30.894;2023-05-13T04:15:58;101030.37;;;17.46;47.65
43681;BME280;29281;50.356;30.894;2023-05-13T04:17:02;101034.71;;;17.70;47.28
43681;BME280;29281;50.356;30.894;2023-05-13T04:18:06;101036.67;;;18.09;46.53
43681;BME280;29281;50.356;30.894;2023-05-13T04:19:09;101033.11;;;18.90;44.65
43681;BME280;29281;50.356;30.894;2023-05-13T04:20:13;101037.90;;;19.56;43.09
43681;BME280;29281;50.356;30.894;2023-05-13T04:21:16;101045.29;;;19.83;42.21
43681;BME280;29281;50.356;30.894;2023-05-13T04:22:23;101046.34;;;20.28;41.12
43681;BME280;29281;50.356;30.894;2023-05-13T04:23:26;101054.59;;;21.28;39.45
43681;BME280;29281;50.356;30.894;2023-05-13T04:24:31;101051.67;;;21.75;38.83
43681;BME280;29281;50.356;30.894;2023-05-13T04:25:34;101049.42;;;22.32;37.81
43681;BME280;29281;50.356;30.894;2023-05-13T04:26:39;101058.34;;;23.26;35.77
43681;BME280;29281;50.356;30.894;2023-05-13T04:27:44;101070.02;;;24.26;34.25
43681;BME280;29281;50.356;30.894;2023-05-13T04:28:55;101067.30;;;25.28;32.17
43681;BME280;29281;50.356;30.894;2023-05-13T04:30:01;101075.66;;;26.41;30.65
43681;BME280;29281;50.356;30.894;2023-05-13T04:31:07;101067.27;;;27.30;29.78
43681;BME280;29281;50.356;30.894;2023-05-13T04:32:11;101078.45;;;27.93;28.46
43681;BME280;29281;50.356;30.894;2023-05-13T04:33:18;101093.91;;;28.07;27.49
43681;BME280;29281;50.356;30.894;2023-05-13T04:34:23;101095.98;;;28.05;27.21
43681;BME280;29281;50.356;30.894;2023-05-13T04:35:27;101102.58;;;28.66;26.70
43681;BME280;29281;50.356;30.894;2023-05-13T04:36:33;101100.22;;;28.57;26.71
43681;BME280;29281;50.356;30.894;2023-05-13T04:37:36;101105.59;;;28.78;26.15
43681;BME280;29281;50.356;30.894;2023-05-13T04:38:44;101111.22;;;28.98;25.67
43681;BME280;29281;50.356;30.894;2023-05-13T04:39:49;101108.71;;;29.44;25.39
43681;BME280;29281;50.356;30.894;2023-05-13T04:40:57;101115.31;;;29.22;25.38
43681;BME280;29281;50.356;30.894;2023-05-13T04:42:09;101112.78;;;29.20;25.57
43681;BME280;29281;50.356;30.894;2023-05-13T04:43:13;101121.50;;;30.11;24.74
43681;BME280;29281;50.356;30.894;2023-05-13T04:44:21;101119.87;;;29.49;25.48
43681;BME280;29281;50.356;30.894;2023-05-13T04:45:24;101119.02;;;29.42;25.43
43681;BME280;29281;50.356;30.894;2023-05-13T04:46:31;101119.52;;;29.72;24.85
43681;BME280;29281;50.356;30.894;2023-05-13T04:47:34;101121.83;;;29.21;25.19
43681;BME280;29281;50.356;30.894;2023-05-13T04:48:40;101126.42;;;29.55;25.09
43681;BME280;29281;50.356;30.894;2023-05-13T04:49:44;101123.11;;;29.79;24.82
43681;BME280;29281;50.356;30.894;2023-05-13T04:50:49;101125.61;;;29.67;24.88
43681;BME280;29281;50.356;30.894;2023-05-13T04:52:03;101119.95;;;29.82;24.80
43681;BME280;29281;50.356;30.894;2023-05-13T04:53:08;101131.34;;;29.86;24.77
43681;BME280;29281;50.356;30.894;2023-05-13T04:54:11;101127.12;;;29.83;24.75
43681;BME280;29281;50.356;30.894;2023-05-13T04:55:15;101125.52;;;30.35;24.58
43681;BME280;29281;50.356;30.894;2023-05-13T04:56:17;101126.98;;;30.84;23.97
43681;BME280;29281;50.356;30.894;2023-05-13T04:57:20;101123.14;;;30.91;23.70
43681;BME280;29281;50.356;30.894;2023-05-13T04:58:24;101133.73;;;30.48;23.67
43681;BME280;29281;50.356;30.894;2023-05-13T04:59:28;101132.03;;;30.01;24.33
43681;BME280;29281;50.356;30.894;2023-05-13T05:00:32;101136.46;;;30.02;24.33
43681;BME280;29281;50.356;30.894;2023-05-13T05:01:37;101131.20;;;30.47;24.06
43681;BME280;29281;50.356;30.894;2023-05-13T05:02:40;101127.45;;;30.54;24.06
43681;BME280;29281;50.356;30.894;2023-05-13T05:03:45;101130.31;;;31.57;23.25
43681;BME280;29281;50.356;30.894;2023-05-13T05:04:49;101142.33;;;32.00;22.91
43681;BME280;29281;50.356;30.894;2023-05-13T05:05:52;101137.16;;;31.34;23.15
43681;BME280;29281;50.356;30.894;2023-05-13T05:07:00;101140.40;;;31.63;23.07
43681;BME280;29281;50.356;30.894;2023-05-13T05:08:01;101139.14;;;32.03;22.66
43681;BME280;29281;50.356;30.894;2023-05-13T05:09:06;101137.94;;;32.24;22.40
43681;BME280;29281;50.356;30.894;2023-05-13T05:10:13;101136.49;;;32.46;22.17
43681;BME280;29281;50.356;30.894;2023-05-13T05:11:20;101136.56;;;33.26;21.57
43681;BME280;29281;50.356;30.894;2023-05-13T05:12:23;101146.67;;;32.89;21.81
43681;BME280;29281;50.356;30.894;2023-05-13T05:13:27;101146.20;;;32.74;21.67
43681;BME280;29281;50.356;30.894;2023-05-13T05:14:31;101140.02;;;32.29;21.97
43681;BME280;29281;50.356;30.894;2023-05-13T05:15:34;101137.30;;;32.97;21.92
43681;BME280;29281;50.356;30.894;2023-05-13T05:16:39;101140.80;;;33.22;21.74
43681;BME280;29281;50.356;30.894;2023-05-13T05:17:43;101147.73;;;33.61;21.13
43681;BME280;29281;50.356;30.894;2023-05-13T05:18:47;101156.31;;;34.01;20.67
43681;BME280;29281;50.356;30.894;2023-05-13T05:19:51;101154.91;;;33.80;20.45
43681;BME280;29281;50.356;30.894;2023-05-13T05:20:56;101156.28;;;33.90;20.75
43681;BME280;29281;50.356;30.894;2023-05-13T05:22:01;101159.47;;;34.16;19.95
43681;BME280;29281;50.356;30.894;2023-05-13T05:23:04;101166.39;;;34.61;19.65
43681;BME280;29281;50.356;30.894;2023-05-13T05:24:07;101169.41;;;35.29;19.01
43681;BME280;29281;50.356;30.894;2023-05-13T05:25:11;101164.69;;;35.70;18.85
43681;BME280;29281;50.356;30.894;2023-05-13T05:26:16;101176.21;;;34.68;19.00
43681;BME280;29281;50.356;30.894;2023-05-13T05:27:19;101166.55;;;33.82;19.83
43681;BME280;29281;50.356;30.894;2023-05-13T05:28:23;101171.67;;;33.79;20.00
43681;BME280;29281;50.356;30.894;2023-05-13T05:29:26;101169.64;;;33.56;20.03
43681;BME280;29281;50.356;30.894;2023-05-13T05:30:32;101172.70;;;33.11;20.29
43681;BME280;29281;50.356;30.894;2023-05-13T05:31:39;101168.62;;;33.69;20.24
43681;BME280;29281;50.356;30.894;2023-05-13T05:32:44;101181.14;;;34.13;19.89
43681;BME280;29281;50.356;30.894;2023-05-13T05:33:49;101181.17;;;35.13;19.16
43681;BME280;29281;50.356;30.894;2023-05-13T05:34:59;101183.00;;;35.59;18.84
43681;BME280;29281;50.356;30.894;2023-05-13T05:36:07;101170.22;;;35.70;18.88
43681;BME280;29281;50.356;30.894;2023-05-13T05:37:11;101188.99;;;35.96;18.36
43681;BME280;29281;50.356;30.894;2023-05-13T05:38:13;101183.08;;;36.04;18.35
43681;BME280;29281;50.356;30.894;2023-05-13T05:39:16;101183.67;;;35.03;18.92
43681;BME280;29281;50.356;30.894;2023-05-13T05:40:20;101188.96;;;35.04;19.07